createdAt,value
2017-06-09T00:00:06.801Z,15.50
2017-06-09T00:02:33.444Z,15.50
2017-06-09T00:04:59.668Z,15.40
2017-06-09T00:07:25.948Z,15.40
2017-06-09T00:09:52.559Z,15.30
2017-06-09T00:12:18.807Z,15.20
2017-06-09T00:14:45.072Z,15.30
2017-06-09T00:17:12.456Z,15.30
2017-06-09T00:19:38.684Z,15.20
2017-06-09T00:22:04.923Z,15.40
2017-06-09T00:24:31.552Z,15.40
2017-06-09T00:26:57.816Z,15.30
2017-06-09T00:29:24.076Z,15.20
2017-06-09T00:31:51.491Z,15.20
2017-06-09T00:34:17.817Z,15.20
2017-06-09T00:36:44.117Z,15.30
2017-06-09T00:39:10.672Z,15.40
2017-06-09T00:41:36.955Z,15.30
2017-06-09T00:44:04.009Z,15.20
2017-06-09T00:46:30.685Z,15.20
2017-06-09T00:48:57.038Z,15.20
2017-06-09T00:51:23.280Z,15.30
2017-06-09T00:53:49.900Z,15.20
2017-06-09T00:56:16.148Z,15.30
2017-06-09T00:58:42.384Z,15.10
2017-06-09T01:01:08.994Z,15.10
2017-06-09T01:03:35.285Z,15.20
2017-06-09T01:06:01.544Z,15.20
2017-06-09T01:08:28.244Z,15.10
2017-06-09T01:10:55.247Z,14.90
2017-06-09T01:13:21.460Z,14.80
2017-06-09T01:15:48.093Z,14.80
2017-06-09T01:18:14.320Z,15.00
2017-06-09T01:20:40.556Z,14.90
2017-06-09T01:23:07.701Z,14.80
2017-06-09T01:25:33.975Z,14.80
2017-06-09T01:28:00.220Z,14.80
2017-06-09T01:30:27.632Z,14.80
2017-06-09T01:32:53.936Z,14.80
2017-06-09T01:35:20.246Z,14.80
2017-06-09T01:37:47.655Z,14.90
2017-06-09T01:40:13.920Z,14.80
2017-06-09T01:42:40.194Z,14.80
2017-06-09T01:45:06.849Z,14.80
2017-06-09T01:47:33.148Z,14.80
2017-06-09T01:49:59.427Z,14.70
2017-06-09T01:52:26.148Z,14.70
2017-06-09T01:54:52.437Z,14.70
2017-06-09T01:57:19.526Z,14.60
2017-06-09T01:59:46.256Z,14.60
2017-06-09T02:02:12.540Z,14.60
2017-06-09T02:04:38.819Z,14.50
2017-06-09T02:07:06.092Z,14.50
2017-06-09T02:09:32.455Z,14.60
2017-06-09T02:11:59.444Z,14.60
2017-06-09T02:14:26.093Z,14.50
2017-06-09T02:16:52.380Z,14.50
2017-06-09T02:19:19.373Z,14.60
2017-06-09T02:21:46.088Z,14.60
2017-06-09T02:24:12.367Z,14.60
2017-06-09T02:26:38.625Z,14.50
2017-06-09T02:29:05.309Z,14.50
2017-06-09T02:31:31.557Z,14.50
2017-06-09T02:33:57.792Z,14.50
2017-06-09T02:36:24.936Z,14.50
2017-06-09T02:38:51.203Z,14.60
2017-06-09T02:41:18.212Z,14.60
2017-06-09T02:43:44.845Z,14.60
2017-06-09T02:46:11.204Z,14.60
2017-06-09T02:48:37.488Z,14.60
2017-06-09T02:51:04.129Z,14.60
2017-06-09T02:53:30.420Z,14.60
2017-06-09T02:55:56.703Z,14.60
2017-06-09T02:58:23.284Z,14.60
2017-06-09T03:00:50.272Z,14.50
2017-06-09T03:03:16.570Z,14.40
2017-06-09T03:05:43.324Z,14.50
2017-06-09T03:08:09.579Z,14.70
2017-06-09T03:10:35.847Z,14.70
2017-06-09T03:13:03.251Z,14.60
2017-06-09T03:15:29.533Z,14.50
2017-06-09T03:17:55.827Z,14.60
2017-06-09T03:20:23.271Z,14.80
2017-06-09T03:22:49.586Z,14.80
2017-06-09T03:25:15.840Z,14.70
2017-06-09T03:27:42.556Z,14.80
2017-06-09T03:30:08.828Z,14.70
2017-06-09T03:32:42.587Z,14.80
2017-06-09T03:35:08.891Z,14.70
2017-06-09T03:37:35.198Z,14.70
2017-06-09T03:40:02.660Z,14.90
2017-06-09T03:42:28.973Z,14.90
2017-06-09T03:44:55.271Z,15.00
2017-06-09T03:47:21.863Z,15.00
2017-06-09T03:49:48.120Z,15.00
2017-06-09T03:52:14.389Z,15.00
2017-06-09T03:54:41.079Z,15.10
2017-06-09T03:57:07.359Z,15.10
2017-06-09T03:59:33.653Z,15.10
2017-06-09T04:02:00.373Z,15.10
2017-06-09T04:04:26.660Z,15.10
2017-06-09T04:06:52.930Z,15.00
2017-06-09T04:09:19.755Z,15.10
2017-06-09T04:11:46.016Z,15.30
2017-06-09T04:14:12.283Z,15.30
2017-06-09T04:16:38.975Z,15.40
2017-06-09T04:19:05.248Z,15.40
2017-06-09T04:21:31.573Z,15.30
2017-06-09T04:23:58.202Z,15.30
2017-06-09T04:26:24.462Z,15.40
2017-06-09T04:28:50.748Z,15.40
2017-06-09T04:31:18.166Z,15.40
2017-06-09T04:33:44.494Z,15.40
2017-06-09T04:38:44.104Z,15.50
2017-06-09T04:41:10.400Z,15.40
2017-06-09T04:43:36.700Z,15.60
2017-06-09T04:46:03.391Z,15.70
2017-06-09T04:48:30.456Z,16.00
2017-06-09T04:50:56.789Z,15.90
2017-06-09T04:53:24.204Z,16.00
2017-06-09T04:55:50.500Z,15.90
2017-06-09T04:58:16.801Z,15.90
2017-06-09T05:00:43.485Z,15.90
2017-06-09T05:03:09.775Z,16.00
2017-06-09T05:05:36.803Z,16.10
2017-06-09T05:08:03.513Z,16.00
2017-06-09T05:10:29.751Z,16.00
2017-06-09T05:12:56.013Z,16.20
2017-06-09T05:15:22.685Z,16.30
2017-06-09T05:17:48.959Z,16.30
2017-06-09T05:20:15.992Z,16.30
2017-06-09T05:22:42.716Z,16.20
2017-06-09T05:25:09.036Z,16.20
2017-06-09T05:27:35.337Z,16.50
2017-06-09T05:30:01.999Z,16.60
2017-06-09T05:32:28.328Z,16.70
2017-06-09T05:34:54.604Z,16.80
2017-06-09T05:37:21.275Z,16.90
2017-06-09T05:39:47.547Z,17.10
2017-06-09T05:42:14.600Z,17.20
2017-06-09T05:44:42.120Z,17.20
2017-06-09T05:47:08.550Z,17.20
2017-06-09T05:49:34.811Z,17.20
2017-06-09T05:52:01.510Z,17.40
2017-06-09T05:54:27.799Z,17.70
2017-06-09T05:56:54.093Z,17.50
2017-06-09T05:59:21.530Z,17.50
2017-06-09T06:01:47.825Z,17.40
2017-06-09T06:04:14.112Z,17.60
2017-06-09T06:06:41.544Z,18.00
2017-06-09T06:09:07.847Z,17.90
2017-06-09T06:11:34.131Z,18.10
2017-06-09T06:14:01.642Z,18.00
2017-06-09T06:16:27.933Z,18.00
2017-06-09T06:18:54.209Z,18.20
2017-06-09T06:21:20.941Z,18.20
2017-06-09T06:23:47.205Z,18.30
2017-06-09T06:26:13.487Z,18.30
2017-06-09T06:28:40.227Z,18.30
2017-06-09T06:31:06.540Z,18.60
2017-06-09T06:33:32.788Z,18.70
2017-06-09T06:35:59.417Z,18.80
2017-06-09T06:38:26.290Z,18.80
2017-06-09T06:40:53.334Z,18.90
2017-06-09T06:43:20.767Z,19.00
2017-06-09T06:45:47.040Z,18.90
2017-06-09T06:48:13.333Z,18.90
2017-06-09T06:50:40.709Z,18.90
2017-06-09T06:53:06.989Z,19.00
2017-06-09T06:55:33.317Z,18.90
2017-06-09T06:57:59.949Z,19.00
2017-06-09T07:00:26.217Z,19.00
2017-06-09T07:02:53.236Z,19.20
2017-06-09T07:05:19.845Z,19.10
2017-06-09T07:07:46.141Z,19.10
2017-06-09T07:10:13.152Z,19.00
2017-06-09T07:12:39.754Z,18.90
2017-06-09T07:15:06.048Z,19.00
2017-06-09T07:17:33.072Z,19.10
2017-06-09T07:19:59.782Z,19.10
2017-06-09T07:22:26.079Z,19.20
2017-06-09T07:24:52.358Z,19.30
2017-06-09T07:27:19.589Z,19.30
2017-06-09T07:29:45.908Z,19.40
2017-06-09T07:32:12.218Z,19.50
2017-06-09T07:34:38.887Z,19.50
2017-06-09T07:37:05.207Z,19.40
2017-06-09T07:39:31.468Z,19.40
2017-06-09T07:41:58.880Z,19.60
2017-06-09T07:44:25.136Z,19.60
2017-06-09T07:46:52.189Z,19.90
2017-06-09T07:49:18.904Z,19.80
2017-06-09T07:51:45.204Z,19.90
2017-06-09T07:54:11.477Z,19.90
2017-06-09T07:56:38.095Z,20.10
2017-06-09T07:59:04.398Z,20.30
2017-06-09T08:01:30.747Z,20.40
2017-06-09T08:03:57.381Z,20.50
2017-06-09T08:06:23.683Z,20.40
2017-06-09T08:08:49.995Z,20.50
2017-06-09T08:11:17.396Z,20.60
2017-06-09T08:13:43.660Z,20.50
2017-06-09T08:16:09.968Z,20.60
2017-06-09T08:18:36.599Z,20.80
2017-06-09T08:21:02.875Z,21.00
2017-06-09T08:23:29.160Z,20.90
2017-06-09T08:25:55.770Z,21.00
2017-06-09T08:28:22.068Z,20.90
2017-06-09T08:30:48.354Z,21.00
2017-06-09T08:33:14.975Z,21.00
2017-06-09T08:35:41.263Z,21.20
2017-06-09T08:38:07.543Z,21.40
2017-06-09T08:40:34.176Z,21.60
2017-06-09T08:43:00.467Z,21.70
2017-06-09T08:45:26.748Z,21.90
2017-06-09T08:47:53.360Z,21.80
2017-06-09T08:50:19.658Z,22.00
2017-06-09T08:52:45.931Z,22.20
2017-06-09T08:55:12.484Z,22.30
2017-06-09T08:57:38.753Z,22.30
2017-06-09T09:00:05.018Z,22.50
2017-06-09T09:02:32.368Z,22.90
2017-06-09T09:04:59.448Z,22.90
2017-06-09T09:07:25.759Z,22.80
2017-06-09T09:09:52.371Z,22.90
2017-06-09T09:12:18.654Z,22.80
2017-06-09T09:14:45.684Z,23.20
2017-06-09T09:17:12.358Z,23.20
2017-06-09T09:19:38.636Z,23.30
2017-06-09T09:22:05.641Z,23.40
2017-06-09T09:24:32.221Z,23.40
2017-06-09T09:26:59.229Z,23.60
2017-06-09T09:29:25.511Z,23.50
2017-06-09T09:31:52.163Z,23.70
2017-06-09T09:34:18.424Z,24.00
2017-06-09T09:36:44.728Z,24.10
2017-06-09T09:39:11.352Z,24.30
2017-06-09T09:41:37.615Z,24.20
2017-06-09T09:44:03.876Z,24.20
2017-06-09T09:46:30.429Z,24.10
2017-06-09T09:48:56.727Z,24.10
2017-06-09T09:51:23.012Z,24.10
2017-06-09T09:53:49.566Z,24.20
2017-06-09T09:56:15.853Z,24.30
2017-06-09T09:58:42.143Z,24.40
2017-06-09T10:01:08.835Z,24.40
2017-06-09T10:03:35.145Z,24.50
2017-06-09T10:06:01.412Z,24.60
2017-06-09T10:08:28.132Z,24.40
2017-06-09T10:10:54.463Z,24.30
2017-06-09T10:13:20.762Z,24.50
2017-06-09T10:15:47.356Z,24.70
2017-06-09T10:18:13.652Z,24.80
2017-06-09T10:20:40.024Z,24.90
2017-06-09T10:23:06.715Z,24.90
2017-06-09T10:25:33.015Z,24.80
2017-06-09T10:27:59.267Z,24.40
2017-06-09T10:30:25.909Z,24.60
2017-06-09T10:32:52.167Z,24.90
2017-06-09T10:35:18.441Z,25.00
2017-06-09T10:37:45.090Z,25.30
2017-06-09T10:40:11.366Z,25.30
2017-06-09T10:42:37.641Z,25.40
2017-06-09T10:45:04.288Z,25.30
2017-06-09T10:47:30.579Z,25.40
2017-06-09T10:49:56.842Z,25.40
2017-06-09T10:52:23.478Z,25.60
2017-06-09T10:54:49.777Z,25.90
2017-06-09T10:57:16.035Z,26.10
2017-06-09T10:59:42.612Z,26.20
2017-06-09T11:02:09.643Z,26.20
2017-06-09T11:04:35.907Z,26.10
2017-06-09T11:07:02.568Z,25.90
2017-06-09T11:09:28.841Z,26.00
2017-06-09T11:11:55.117Z,26.10
2017-06-09T11:14:21.858Z,26.40
2017-06-09T11:16:48.115Z,26.00
2017-06-09T11:19:15.168Z,25.50
2017-06-09T11:21:41.869Z,25.40
2017-06-09T11:24:08.192Z,25.30
2017-06-09T11:26:34.624Z,25.40
2017-06-09T11:31:27.481Z,25.70
2017-06-09T11:33:53.916Z,25.80
2017-06-09T11:36:20.564Z,25.70
2017-06-09T11:38:46.835Z,25.80
2017-06-09T11:41:13.122Z,25.80
2017-06-09T11:43:39.845Z,25.80
2017-06-09T11:46:06.176Z,26.00
2017-06-09T11:48:32.468Z,26.20
2017-06-09T11:50:59.134Z,26.00
2017-06-09T11:53:25.421Z,26.10
2017-06-09T11:55:51.791Z,26.20
2017-06-09T11:58:18.419Z,26.30
2017-06-09T12:00:44.720Z,26.30
2017-06-09T12:03:11.016Z,26.50
2017-06-09T12:05:38.441Z,26.00
2017-06-09T12:08:04.763Z,25.90
2017-06-09T12:10:31.666Z,26.20
2017-06-09T12:12:58.268Z,26.30
2017-06-09T12:15:24.528Z,26.40
2017-06-09T12:17:51.536Z,26.50
2017-06-09T12:20:18.148Z,26.40
2017-06-09T12:22:44.437Z,26.60
2017-06-09T12:25:10.693Z,26.70
2017-06-09T12:27:37.266Z,26.60
2017-06-09T12:30:03.565Z,26.30
2017-06-09T12:32:29.893Z,26.00
2017-06-09T12:34:56.439Z,26.20
2017-06-09T12:37:22.725Z,26.20
2017-06-09T12:39:49.077Z,26.50
2017-06-09T12:42:15.616Z,26.50
2017-06-09T12:44:41.868Z,26.50
2017-06-09T12:47:08.167Z,26.60
2017-06-09T12:49:34.757Z,26.60
2017-06-09T12:52:01.846Z,26.30
2017-06-09T12:54:28.165Z,26.30
2017-06-09T12:56:54.819Z,26.20
2017-06-09T12:59:21.112Z,26.30
2017-06-09T13:01:47.392Z,26.50
2017-06-09T13:04:14.737Z,26.60
2017-06-09T13:06:40.990Z,26.50
2017-06-09T13:09:07.254Z,26.50
2017-06-09T13:11:33.908Z,26.50
2017-06-09T13:14:00.184Z,26.60
2017-06-09T13:16:27.215Z,26.50
2017-06-09T13:18:54.656Z,26.50
2017-06-09T13:21:20.964Z,26.50
2017-06-09T13:23:47.229Z,26.50
2017-06-09T13:26:13.941Z,26.40
2017-06-09T13:28:40.976Z,26.60
2017-06-09T13:31:07.240Z,26.50
2017-06-09T13:33:34.652Z,26.90
2017-06-09T13:36:00.935Z,26.90
2017-06-09T13:38:27.244Z,27.10
2017-06-09T13:40:54.657Z,27.70
2017-06-09T13:43:21.127Z,27.60
2017-06-09T13:45:48.125Z,28.30
2017-06-09T13:48:14.781Z,28.30
2017-06-09T13:50:41.076Z,28.40
2017-06-09T13:53:07.343Z,28.80
2017-06-09T13:55:33.940Z,29.10
2017-06-09T13:58:00.196Z,29.10
2017-06-09T14:00:28.683Z,29.10
2017-06-09T14:02:55.393Z,29.30
2017-06-09T14:05:21.675Z,29.40
2017-06-09T14:07:48.676Z,29.80
2017-06-09T14:10:15.307Z,29.70
2017-06-09T14:12:41.594Z,29.80
2017-06-09T14:15:07.877Z,28.80
2017-06-09T14:17:34.512Z,28.10
2017-06-09T14:20:00.779Z,27.80
2017-06-09T14:22:27.755Z,27.50
2017-06-09T14:24:54.511Z,27.50
2017-06-09T14:27:20.929Z,27.40
2017-06-09T14:29:47.207Z,27.30
2017-06-09T14:32:14.593Z,26.90
2017-06-09T14:34:40.925Z,26.80
2017-06-09T14:37:07.204Z,27.00
2017-06-09T14:39:34.609Z,26.90
2017-06-09T14:42:00.886Z,26.70
2017-06-09T14:44:27.153Z,26.60
2017-06-09T14:46:53.796Z,26.50
2017-06-09T14:49:20.066Z,26.50
2017-06-09T14:51:46.374Z,26.50
2017-06-09T14:54:14.540Z,26.40
2017-06-09T14:56:40.810Z,26.50
2017-06-09T14:59:07.100Z,26.30
2017-06-09T15:01:33.716Z,26.30
2017-06-09T15:03:59.995Z,26.30
2017-06-09T15:06:26.257Z,26.20
2017-06-09T15:08:53.000Z,26.20
2017-06-09T15:11:19.308Z,26.30
2017-06-09T15:13:45.596Z,26.30
2017-06-09T15:16:12.304Z,26.30
2017-06-09T15:18:38.598Z,26.40
2017-06-09T15:21:05.632Z,26.30
2017-06-09T15:23:32.241Z,26.20
2017-06-09T15:25:58.501Z,26.20
2017-06-09T15:28:24.779Z,26.50
2017-06-09T15:30:51.516Z,26.60
2017-06-09T15:33:17.808Z,26.70
2017-06-09T15:35:44.096Z,26.60
2017-06-09T15:38:10.907Z,26.30
2017-06-09T15:40:37.192Z,26.20
2017-06-09T15:43:03.479Z,25.90
2017-06-09T15:45:30.194Z,25.50
2017-06-09T15:47:56.484Z,25.50
2017-06-09T15:50:22.848Z,25.10
2017-06-09T15:52:49.576Z,24.80
2017-06-09T15:55:15.826Z,24.10
2017-06-09T15:57:42.048Z,23.50
2017-06-09T16:00:08.656Z,21.90
2017-06-09T16:02:34.952Z,20.70
2017-06-09T16:05:01.927Z,19.60
2017-06-09T16:07:29.221Z,19.50
2017-06-09T16:09:55.496Z,19.10
2017-06-09T16:12:21.772Z,18.60
2017-06-09T16:14:48.487Z,17.90
2017-06-09T16:17:14.744Z,17.50
2017-06-09T16:19:41.792Z,17.30
2017-06-09T16:22:08.497Z,17.20
2017-06-09T16:24:34.768Z,17.20
2017-06-09T16:27:01.799Z,16.90
2017-06-09T16:29:28.515Z,16.90
2017-06-09T16:31:54.765Z,16.60
2017-06-09T16:34:21.191Z,16.30
2017-06-09T16:36:48.715Z,15.90
2017-06-09T16:39:14.982Z,15.90
2017-06-09T16:41:42.003Z,15.80
2017-06-09T16:44:08.641Z,15.70
2017-06-09T16:46:34.892Z,15.60
2017-06-09T16:49:01.912Z,15.50
2017-06-09T16:51:29.297Z,15.40
2017-06-09T16:53:56.286Z,15.50
2017-06-09T16:56:22.573Z,15.40
2017-06-09T16:58:49.964Z,15.70
2017-06-09T17:01:16.232Z,15.60
2017-06-09T17:03:42.502Z,15.50
2017-06-09T17:06:09.169Z,15.30
2017-06-09T17:08:35.423Z,15.40
2017-06-09T17:11:01.685Z,15.40
2017-06-09T17:13:28.322Z,15.30
2017-06-09T17:15:54.577Z,14.90
2017-06-09T17:18:20.816Z,15.00
2017-06-09T17:20:47.426Z,14.80
2017-06-09T17:23:13.667Z,15.50
2017-06-09T17:25:39.933Z,16.10
2017-06-09T17:28:07.332Z,16.00
2017-06-09T17:30:33.612Z,15.90
2017-06-09T17:32:59.901Z,16.10
2017-06-09T17:35:26.643Z,16.20
2017-06-09T17:37:52.901Z,16.30
2017-06-09T17:40:19.151Z,16.10
2017-06-09T17:42:46.444Z,16.10
2017-06-09T17:45:12.708Z,16.00
2017-06-09T17:47:38.985Z,16.20
2017-06-09T17:50:05.623Z,16.60
2017-06-09T17:52:31.884Z,16.70
2017-06-09T17:54:58.180Z,16.70
2017-06-09T17:57:24.840Z,17.10
2017-06-09T17:59:51.085Z,17.10
2017-06-09T18:02:18.128Z,16.70
2017-06-09T18:04:44.835Z,16.70
2017-06-09T18:07:11.156Z,16.90
2017-06-09T18:09:38.201Z,16.00
2017-06-09T18:12:04.999Z,15.90
2017-06-09T18:14:31.329Z,15.70
2017-06-09T18:16:57.611Z,16.00
2017-06-09T18:19:24.347Z,15.80
2017-06-09T18:21:50.675Z,16.00
2017-06-09T18:24:16.944Z,16.00
2017-06-09T18:26:44.337Z,16.00
2017-06-09T18:29:10.617Z,16.00
2017-06-09T18:31:36.894Z,15.80
2017-06-09T18:34:03.749Z,15.70
2017-06-09T18:36:30.041Z,15.90
2017-06-09T18:38:56.327Z,15.70
2017-06-09T18:41:23.041Z,15.70
2017-06-09T18:43:49.364Z,16.20
2017-06-09T18:46:15.913Z,16.30
2017-06-09T18:48:42.661Z,15.80
2017-06-09T18:51:08.969Z,15.90
2017-06-09T18:53:35.243Z,15.80
2017-06-09T18:56:02.685Z,16.00
2017-06-09T18:58:28.950Z,16.00
2017-06-09T19:00:55.329Z,16.20
2017-06-09T19:03:23.686Z,16.20
2017-06-09T19:05:49.988Z,16.20
2017-06-09T19:08:16.261Z,15.70
2017-06-09T19:10:42.914Z,16.20
2017-06-09T19:13:09.249Z,16.10
2017-06-09T19:15:35.567Z,16.80
2017-06-09T19:18:02.172Z,17.30
2017-06-09T19:20:28.459Z,17.00
2017-06-09T19:22:54.739Z,16.70
2017-06-09T19:25:21.368Z,16.60
2017-06-09T19:27:47.659Z,16.70
2017-06-09T19:30:13.933Z,16.40
2017-06-09T19:32:40.547Z,16.50
2017-06-09T19:35:06.853Z,16.30
2017-06-09T19:37:33.135Z,16.10
2017-06-09T19:40:00.565Z,16.00
2017-06-09T19:42:26.984Z,15.90
2017-06-09T19:44:53.318Z,16.20
2017-06-09T19:47:19.957Z,16.40
2017-06-09T19:49:46.237Z,16.40
2017-06-09T19:52:12.539Z,16.30
2017-06-09T19:54:39.129Z,16.30
2017-06-09T19:57:05.905Z,16.00
2017-06-09T19:59:32.224Z,16.10
2017-06-09T20:01:59.049Z,16.30
2017-06-09T20:04:25.291Z,16.10
2017-06-09T20:06:51.551Z,16.00
2017-06-09T20:09:18.119Z,16.10
2017-06-09T20:11:44.892Z,16.00
2017-06-09T20:14:11.192Z,16.20
2017-06-09T20:16:37.953Z,16.30
2017-06-09T20:19:04.253Z,16.00
2017-06-09T20:21:31.240Z,16.00
2017-06-09T20:23:57.670Z,15.90
2017-06-09T20:26:23.947Z,16.20
2017-06-09T20:28:50.217Z,15.90
2017-06-09T20:31:16.764Z,15.80
2017-06-09T20:33:43.131Z,15.80
2017-06-09T20:36:09.380Z,16.00
2017-06-09T20:38:36.545Z,16.20
2017-06-09T20:41:02.980Z,16.10
2017-06-09T20:43:29.243Z,16.10
2017-06-09T20:45:55.773Z,16.20
2017-06-09T20:48:22.074Z,16.20
2017-06-09T20:50:48.381Z,16.20
2017-06-09T20:53:15.669Z,16.30
2017-06-09T20:55:41.935Z,16.30
2017-06-09T20:58:08.220Z,16.00
2017-06-09T21:00:34.681Z,16.00
2017-06-09T21:03:00.951Z,16.10
2017-06-09T21:05:27.280Z,16.00
2017-06-09T21:07:54.537Z,16.00
2017-06-09T21:10:21.539Z,15.80
2017-06-09T21:12:47.777Z,15.80
2017-06-09T21:15:14.287Z,15.80
2017-06-09T21:17:40.665Z,16.00
2017-06-09T21:20:06.938Z,15.80
2017-06-09T21:22:33.419Z,15.80
2017-06-09T21:24:59.700Z,15.70
2017-06-09T21:27:25.941Z,15.70
2017-06-09T21:29:52.598Z,15.90
2017-06-09T21:32:18.859Z,16.00
2017-06-09T21:34:45.136Z,15.80
2017-06-09T21:37:11.576Z,15.90
2017-06-09T21:39:37.885Z,15.90
2017-06-09T21:42:04.884Z,15.80
2017-06-09T21:44:31.404Z,15.80
2017-06-09T21:46:57.696Z,15.90
2017-06-09T21:49:24.708Z,15.70
2017-06-09T21:51:51.219Z,15.70
2017-06-09T21:54:17.483Z,15.80
2017-06-09T21:56:43.717Z,15.70
2017-06-09T21:59:10.936Z,15.60
2017-06-09T22:01:37.193Z,15.50
2017-06-09T22:04:03.440Z,15.60
2017-06-09T22:06:30.825Z,15.70
2017-06-09T22:08:57.192Z,15.60
2017-06-09T22:11:23.503Z,15.40
2017-06-09T22:13:50.052Z,15.40
2017-06-09T22:16:16.311Z,15.20
2017-06-09T22:18:42.625Z,15.30
2017-06-09T22:21:09.064Z,15.30
2017-06-09T22:23:36.068Z,15.00
2017-06-09T22:26:02.308Z,14.90
2017-06-09T22:28:28.819Z,14.90
2017-06-09T22:30:55.108Z,14.90
2017-06-09T22:33:21.450Z,15.00
2017-06-09T22:35:48.017Z,15.00
2017-06-09T22:38:14.272Z,15.00
2017-06-09T22:40:40.593Z,14.80
2017-06-09T22:43:07.112Z,14.80
2017-06-09T22:45:33.360Z,14.70
2017-06-09T22:47:59.631Z,14.60
2017-06-09T22:50:26.840Z,14.70
2017-06-09T22:52:53.170Z,14.70
2017-06-09T22:55:19.453Z,14.70
2017-06-09T22:57:45.957Z,14.60
2017-06-09T23:00:12.221Z,14.60
2017-06-09T23:02:38.480Z,14.70
2017-06-09T23:05:04.908Z,14.80
2017-06-09T23:07:31.127Z,14.70
2017-06-09T23:09:57.388Z,14.70
2017-06-09T23:12:24.031Z,14.60
2017-06-09T23:14:50.328Z,15.00
2017-06-09T23:17:16.620Z,14.90
2017-06-09T23:19:43.328Z,14.80
2017-06-09T23:22:09.629Z,14.80
2017-06-09T23:24:41.877Z,14.80
2017-06-09T23:27:08.472Z,14.60
2017-06-09T23:29:34.728Z,14.60
2017-06-09T23:32:01.057Z,14.50
2017-06-09T23:34:27.558Z,14.60
2017-06-09T23:36:53.890Z,14.40
2017-06-09T23:39:20.176Z,14.50
2017-06-09T23:41:47.447Z,14.40
2017-06-09T23:44:14.429Z,14.50
2017-06-09T23:46:40.710Z,14.50
2017-06-09T23:49:07.129Z,14.30
2017-06-09T23:51:34.147Z,14.40
2017-06-09T23:54:00.384Z,14.30
2017-06-09T23:56:26.793Z,14.10
2017-06-09T23:58:53.043Z,14.20
